Time;durP1;ratioP1;P1;durP2;ratioP2;P2;SDS_P1;SDS_P2;PMS_P1;PMS_P2;Temp;Humidity;BMP_temperature;BMP_pressure;BME280_temperature;BME280_humidity;BME280_pressure;Samples;Min_cycle;Max_cycle;Signal;HPM_P1;HPM_P2
2021/05/19 00:02:18;;;;;;;18.35;13.07;;;8.40;99.90;;;;;;5134472;28;20090;-87
2021/05/19 00:04:45;;;;;;;18.98;13.13;;;8.40;99.90;;;;;;5101703;27;20407;-87
2021/05/19 00:07:12;;;;;;;16.00;12.57;;;8.30;99.90;;;;;;5138216;27;20031;-87
2021/05/19 00:09:39;;;;;;;17.30;12.90;;;8.20;99.90;;;;;;5121886;27;20047;-87
2021/05/19 00:12:06;;;;;;;17.52;12.65;;;8.20;99.90;;;;;;5121435;27;20050;-87
2021/05/19 00:14:33;;;;;;;18.40;13.50;;;8.20;99.90;;;;;;5137967;27;20117;-87
2021/05/19 00:17:00;;;;;;;17.40;11.95;;;8.20;99.90;;;;;;5121267;27;20410;-87
2021/05/19 00:19:27;;;;;;;18.30;12.73;;;8.10;99.90;;;;;;5138151;27;20039;-88
2021/05/19 00:21:54;;;;;;;17.65;11.85;;;8.10;99.90;;;;;;5104698;27;20073;-88
2021/05/19 00:24:21;;;;;;;28.58;12.98;;;8.00;99.90;;;;;;5104190;27;20043;-87
2021/05/19 00:26:53;;;;;;;17.50;12.73;;;8.00;99.90;;;;;;5138413;27;20091;-88
2021/05/19 00:29:20;;;;;;;17.33;12.38;;;8.00;99.90;;;;;;5120911;27;20046;-87
2021/05/19 00:31:47;;;;;;;17.55;12.07;;;7.90;99.90;;;;;;5121360;27;20469;-88
2021/05/19 00:34:14;;;;;;;16.70;12.25;;;7.90;99.90;;;;;;5121197;27;20043;-88
2021/05/19 00:36:42;;;;;;;17.77;12.27;;;7.80;99.90;;;;;;5104166;27;20047;-88
2021/05/19 00:39:11;;;;;;;21.35;12.93;;;7.80;99.90;;;;;;5138271;27;20063;-88
2021/05/19 00:41:41;;;;;;;19.75;13.38;;;7.80;99.90;;;;;;5154139;27;20483;-87
2021/05/19 00:44:10;;;;;;;17.50;12.52;;;7.70;99.90;;;;;;5154277;27;20064;-87
2021/05/19 00:46:41;;;;;;;20.80;12.80;;;7.70;99.90;;;;;;5137715;27;20467;-88
2021/05/19 00:49:08;;;;;;;17.42;13.27;;;7.70;99.90;;;;;;5155150;27;20463;-88
2021/05/19 00:51:35;;;;;;;17.33;12.32;;;7.60;99.90;;;;;;5103979;27;20054;-88
2021/05/19 00:54:03;;;;;;;18.35;13.30;;;7.60;99.90;;;;;;5172691;27;20063;-88
2021/05/19 00:56:30;;;;;;;20.83;12.50;;;7.60;99.90;;;;;;5137701;27;20092;-88
2021/05/19 00:59:00;;;;;;;16.85;11.85;;;7.50;99.90;;;;;;5137586;27;20027;-88
2021/05/19 01:01:29;;;;;;;16.55;12.02;;;7.50;99.90;;;;;;5120309;27;20142;-88
2021/05/19 01:03:56;;;;;;;19.63;12.38;;;7.50;99.90;;;;;;5154542;27;20031;-88
2021/05/19 01:06:31;;;;;;;17.50;11.90;;;7.50;99.90;;;;;;5119849;27;20112;-87
2021/05/19 01:11:42;;;;;;;20.33;13.45;;;7.40;99.90;;;;;;5142345;27;20035;-87
2021/05/19 01:14:09;;;;;;;21.88;13.02;;;7.40;99.90;;;;;;5137303;27;20386;-87
2021/05/19 01:16:36;;;;;;;22.02;12.50;;;7.30;99.90;;;;;;5152919;28;20490;-87
2021/05/19 01:19:05;;;;;;;17.67;11.90;;;7.30;99.90;;;;;;5120238;27;20031;-88
2021/05/19 01:21:33;;;;;;;18.38;11.88;;;7.30;99.90;;;;;;5172042;27;20054;-88
2021/05/19 01:24:05;;;;;;;18.05;12.02;;;7.30;99.90;;;;;;5153877;27;20087;-88
2021/05/19 01:26:33;;;;;;;17.17;12.13;;;7.20;99.90;;;;;;5153381;27;20043;-87
2021/05/19 01:29:01;;;;;;;21.15;12.13;;;7.20;99.90;;;;;;5136432;27;20057;-86
2021/05/19 01:31:28;;;;;;;17.83;11.77;;;7.20;99.90;;;;;;5119509;27;20077;-87
2021/05/19 01:33:55;;;;;;;16.38;12.00;;;7.20;99.90;;;;;;5153532;27;20071;-87
2021/05/19 01:36:22;;;;;;;15.10;11.20;;;7.20;99.90;;;;;;5103494;27;20083;-88
2021/05/19 01:38:49;;;;;;;19.10;12.85;;;7.20;99.90;;;;;;5103247;27;20039;-86
2021/05/19 01:41:16;;;;;;;17.10;12.02;;;7.20;99.90;;;;;;5136486;27;20038;-87
2021/05/19 01:43:43;;;;;;;18.77;12.05;;;7.20;99.90;;;;;;5102626;27;20138;-87
2021/05/19 01:46:10;;;;;;;17.33;11.98;;;7.20;99.90;;;;;;5135615;27;20042;-87
2021/05/19 01:48:37;;;;;;;19.20;12.07;;;7.20;99.90;;;;;;5135745;27;20039;-87
2021/05/19 01:51:05;;;;;;;17.15;11.88;;;7.20;99.90;;;;;;5136407;27;20031;-87
2021/05/19 01:53:35;;;;;;;16.73;11.52;;;7.20;99.90;;;;;;5152462;27;20485;-86
2021/05/19 01:56:03;;;;;;;15.70;10.95;;;7.20;99.90;;;;;;5119347;27;20039;-87
2021/05/19 01:58:31;;;;;;;18.70;11.23;;;7.10;99.90;;;;;;5135683;27;20108;-87
2021/05/19 02:00:58;;;;;;;23.30;10.90;;;7.10;99.90;;;;;;5119399;27;20470;-87
2021/05/19 02:03:25;;;;;;;14.25;10.13;;;7.10;99.90;;;;;;5119539;27;20398;-87
2021/05/19 02:05:52;;;;;;;13.27;9.75;;;7.10;99.90;;;;;;5135542;27;20035;-87
2021/05/19 02:08:19;;;;;;;16.70;10.43;;;7.10;99.90;;;;;;5119658;27;20049;-87
2021/05/19 02:10:46;;;;;;;14.57;9.63;;;7.00;99.90;;;;;;5119252;27;20043;-87
2021/05/19 02:13:15;;;;;;;13.68;9.60;;;7.10;99.90;;;;;;5136256;27;20035;-88
2021/05/19 02:15:42;;;;;;;13.65;9.48;;;7.20;99.90;;;;;;5135920;27;20046;-86
2021/05/19 02:18:09;;;;;;;13.10;9.60;;;7.00;99.90;;;;;;5153405;27;20467;-87
2021/05/19 02:20:37;;;;;;;13.52;8.90;;;7.00;99.90;;;;;;5136438;27;20038;-87
2021/05/19 02:23:05;;;;;;;11.65;9.10;;;7.00;99.90;;;;;;5119595;27;20043;-87
2021/05/19 02:25:32;;;;;;;15.68;9.93;;;7.00;99.90;;;;;;5152385;27;20080;-86
2021/05/19 02:27:59;;;;;;;14.25;9.75;;;7.00;99.90;;;;;;5151697;27;20471;-87
2021/05/19 02:30:26;;;;;;;16.15;9.93;;;6.90;99.90;;;;;;5118240;27;20114;-87
2021/05/19 02:32:54;;;;;;;14.55;9.45;;;7.00;99.90;;;;;;5117823;27;20075;-87
2021/05/19 02:35:21;;;;;;;13.75;9.52;;;6.90;99.90;;;;;;5118746;27;20042;-87
2021/05/19 02:37:48;;;;;;;15.23;9.55;;;7.00;99.90;;;;;;5151867;28;20391;-87
2021/05/19 02:40:16;;;;;;;11.75;8.30;;;6.90;99.90;;;;;;5118402;27;20460;-86
2021/05/19 02:42:44;;;;;;;11.38;8.57;;;7.10;99.90;;;;;;5134357;27;20072;-86
2021/05/19 02:45:12;;;;;;;12.90;9.23;;;6.80;99.90;;;;;;5134784;27;20035;-86
2021/05/19 02:47:39;;;;;;;12.95;8.77;;;6.80;99.90;;;;;;5117725;28;20376;-86
2021/05/19 02:50:06;;;;;;;14.48;8.82;;;6.80;99.90;;;;;;5118385;27;20118;-87
2021/05/19 02:52:36;;;;;;;14.27;8.48;;;6.80;99.90;;;;;;5119381;28;20035;-86
2021/05/19 02:55:06;;;;;;;14.23;8.70;;;6.80;99.90;;;;;;5118528;27;20042;-86
2021/05/19 02:57:33;;;;;;;12.05;8.15;;;6.80;99.90;;;;;;5135244;27;20130;-87
2021/05/19 03:00:00;;;;;;;13.80;8.73;;;6.80;99.90;;;;;;5117903;27;20087;-86
2021/05/19 03:02:27;;;;;;;13.45;9.30;;;6.80;99.90;;;;;;5101262;28;20046;-86
2021/05/19 03:04:54;;;;;;;14.27;9.48;;;6.70;99.90;;;;;;5117061;28;20035;-86
2021/05/19 03:07:21;;;;;;;15.73;9.68;;;7.10;99.90;;;;;;5117835;28;20039;-86
2021/05/19 03:09:48;;;;;;;15.13;10.05;;;6.80;99.90;;;;;;5116962;28;20092;-86
2021/05/19 03:12:19;;;;;;;18.27;11.02;;;6.90;99.90;;;;;;5118604;28;20039;-86
2021/05/19 03:14:45;;;;;;;15.55;10.40;;;7.00;99.90;;;;;;5133649;28;20134;-86
2021/05/19 03:17:13;;;;;;;17.95;10.80;;;7.10;99.90;;;;;;5134083;28;20070;-86
2021/05/19 03:19:40;;;;;;;18.70;10.52;;;7.50;99.90;;;;;;5134137;28;20046;-85
2021/05/19 03:22:07;;;;;;;17.70;11.30;;;7.20;99.90;;;;;;5100751;28;20055;-86
2021/05/19 03:24:33;;;;;;;18.75;11.52;;;7.20;99.90;;;;;;5117646;28;20601;-86
2021/05/19 03:27:03;;;;;;;15.63;10.68;;;7.30;99.90;;;;;;5134622;28;20039;-86
2021/05/19 03:29:31;;;;;;;16.13;10.55;;;7.30;99.90;;;;;;5134447;28;20035;-87
2021/05/19 03:32:00;;;;;;;18.85;11.05;;;7.40;99.90;;;;;;5150759;28;20035;-86
2021/05/19 03:34:27;;;;;;;18.38;10.38;;;7.40;99.90;;;;;;5134671;28;20398;-86
2021/05/19 03:36:59;;;;;;;15.68;10.38;;;7.80;99.90;;;;;;5119096;28;20043;-86
2021/05/19 03:39:26;;;;;;;16.25;9.95;;;7.50;99.90;;;;;;5151544;27;20038;-86
2021/05/19 03:41:53;;;;;;;15.45;10.90;;;7.70;99.90;;;;;;5154279;27;20080;-86
2021/05/19 03:44:20;;;;;;;15.25;9.95;;;7.80;99.90;;;;;;5155115;27;20104;-86
2021/05/19 03:46:48;;;;;;;15.77;10.35;;;7.60;99.90;;;;;;5120699;27;20043;-85
2021/05/19 03:49:15;;;;;;;14.45;9.25;;;7.70;99.90;;;;;;5122355;27;20041;-86
2021/05/19 03:51:43;;;;;;;18.77;10.48;;;7.70;99.90;;;;;;5137825;27;20039;-86
2021/05/19 03:54:10;;;;;;;19.92;10.60;;;7.70;99.90;;;;;;5104361;27;20047;-86
2021/05/19 03:56:37;;;;;;;19.55;10.73;;;7.80;99.90;;;;;;5154954;27;20103;-87
2021/05/19 03:59:04;;;;;;;18.13;10.68;;;7.80;99.90;;;;;;5120482;27;20032;-87
2021/05/19 04:01:34;;;;;;;18.00;10.73;;;7.90;99.90;;;;;;5154973;27;20084;-87
2021/05/19 04:04:00;;;;;;;16.05;10.00;;;7.90;99.90;;;;;;5104518;27;20475;-86
2021/05/19 04:06:27;;;;;;;15.52;9.77;;;7.90;99.90;;;;;;5137813;27;20035;-86
2021/05/19 04:08:57;;;;;;;16.27;10.30;;;7.90;99.90;;;;;;5120419;27;20035;-86
2021/05/19 04:11:24;;;;;;;16.30;10.30;;;7.90;99.90;;;;;;5121167;27;20051;-86
2021/05/19 04:13:52;;;;;;;18.27;10.48;;;7.90;99.90;;;;;;5137619;27;20035;-86
2021/05/19 04:16:19;;;;;;;19.55;10.82;;;7.90;99.90;;;;;;5154524;27;20049;-86
2021/05/19 04:18:46;;;;;;;13.63;9.10;;;8.00;99.90;;;;;;5120777;27;20039;-86
2021/05/19 04:21:13;;;;;;;17.38;10.55;;;8.00;99.90;;;;;;5137059;27;20031;-86
2021/05/19 04:23:40;;;;;;;17.20;9.60;;;8.00;99.90;;;;;;5154343;27;20039;-86
2021/05/19 04:26:08;;;;;;;21.48;10.32;;;8.00;99.90;;;;;;5137011;27;20035;-86
2021/05/19 04:28:35;;;;;;;19.55;10.25;;;8.10;99.90;;;;;;5120305;27;20121;-86
2021/05/19 04:31:04;;;;;;;15.68;9.25;;;8.10;99.90;;;;;;5120475;27;20060;-85
2021/05/19 04:33:31;;;;;;;15.27;9.80;;;8.10;99.90;;;;;;5154012;27;20051;-86
2021/05/19 04:35:58;;;;;;;13.27;10.05;;;8.20;99.90;;;;;;5120184;27;20050;-86
2021/05/19 04:38:27;;;;;;;17.52;10.23;;;8.20;99.90;;;;;;5137198;27;20051;-86
2021/05/19 04:40:54;;;;;;;15.63;9.95;;;8.30;99.90;;;;;;5119893;27;20047;-85
2021/05/19 04:43:20;;;;;;;15.25;9.82;;;8.30;99.90;;;;;;5119880;27;20050;-85
2021/05/19 04:45:47;;;;;;;14.93;10.13;;;8.30;99.90;;;;;;5119547;27;20483;-86
2021/05/19 04:48:14;;;;;;;19.95;10.65;;;8.40;99.90;;;;;;5103375;27;20493;-86
2021/05/19 04:50:43;;;;;;;14.68;10.65;;;8.40;99.90;;;;;;5172054;27;20035;-86
2021/05/19 04:53:11;;;;;;;19.70;11.88;;;8.40;99.90;;;;;;5136551;27;20088;-86
2021/05/19 04:55:38;;;;;;;18.13;10.75;;;8.40;99.90;;;;;;5120094;27;20043;-86
2021/05/19 04:58:06;;;;;;;17.95;11.32;;;8.50;99.90;;;;;;5119621;27;20142;-86
2021/05/19 05:00:36;;;;;;;13.75;10.73;;;8.50;99.90;;;;;;5120120;27;20429;-86
2021/05/19 05:03:10;;;;;;;18.83;11.52;;;8.60;99.90;;;;;;5121801;27;20487;-86
2021/05/19 05:05:37;;;;;;;17.35;12.13;;;8.60;99.90;;;;;;5120733;27;20380;-87
2021/05/19 05:08:04;;;;;;;15.15;9.88;;;8.70;99.90;;;;;;5136583;27;20085;-85
2021/05/19 05:10:31;;;;;;;16.15;11.05;;;8.70;99.90;;;;;;5120218;27;20036;-86
2021/05/19 05:12:58;;;;;;;17.52;12.15;;;8.80;99.90;;;;;;5119267;27;20035;-85
2021/05/19 05:15:25;;;;;;;16.85;10.93;;;8.80;99.90;;;;;;5136183;27;20043;-86
2021/05/19 05:17:52;;;;;;;15.90;10.82;;;8.90;99.90;;;;;;5136170;27;20039;-86
2021/05/19 05:20:21;;;;;;;17.70;11.23;;;8.90;99.90;;;;;;5118987;27;20099;-86
2021/05/19 05:22:48;;;;;;;16.15;10.50;;;8.90;99.90;;;;;;5103253;27;20051;-86
2021/05/19 05:25:15;;;;;;;16.83;11.55;;;8.90;99.90;;;;;;5135664;27;20031;-86
2021/05/19 05:27:42;;;;;;;14.05;11.30;;;9.00;99.90;;;;;;5135915;27;20055;-86
2021/05/19 05:30:10;;;;;;;17.40;10.65;;;9.00;99.90;;;;;;5135592;27;20074;-86
2021/05/19 05:32:37;;;;;;;16.30;11.45;;;9.00;99.90;;;;;;5136051;27;20051;-86
2021/05/19 05:35:04;;;;;;;16.95;11.57;;;9.00;99.90;;;;;;5136325;27;20039;-86
2021/05/19 05:37:31;;;;;;;19.38;11.45;;;9.10;99.90;;;;;;5136109;27;20136;-86
2021/05/19 05:39:58;;;;;;;15.63;11.05;;;9.10;99.90;;;;;;5135983;27;20033;-86
2021/05/19 05:42:28;;;;;;;17.77;12.05;;;9.20;99.90;;;;;;5119066;27;20466;-86
2021/05/19 05:44:55;;;;;;;16.98;11.57;;;9.30;99.90;;;;;;5136381;27;20035;-86
2021/05/19 05:47:22;;;;;;;14.10;10.55;;;9.30;99.90;;;;;;5135695;27;20041;-87
2021/05/19 05:49:52;;;;;;;17.98;11.73;;;9.40;99.90;;;;;;5118767;27;20086;-86
2021/05/19 05:52:19;;;;;;;16.42;10.80;;;9.40;99.90;;;;;;5152265;27;20478;-86
2021/05/19 05:54:46;;;;;;;17.23;11.45;;;9.50;99.90;;;;;;5135691;27;20096;-86
2021/05/19 05:57:14;;;;;;;16.60;11.02;;;9.50;99.90;;;;;;5098278;28;20075;-86
2021/05/19 05:59:41;;;;;;;14.95;11.57;;;9.50;99.90;;;;;;5081726;28;20136;-85
2021/05/19 06:02:08;;;;;;;18.65;11.70;;;9.60;99.90;;;;;;5098032;28;20460;-85
2021/05/19 06:04:38;;;;;;;17.08;12.10;;;9.60;99.90;;;;;;5098248;28;20047;-86
2021/05/19 06:07:05;;;;;;;17.75;11.65;;;9.50;99.90;;;;;;5115357;28;20040;-85
2021/05/19 06:09:32;;;;;;;17.88;12.23;;;9.80;99.90;;;;;;5132898;28;20074;-86
2021/05/19 06:11:59;;;;;;;18.90;11.95;;;9.90;99.90;;;;;;5120978;28;20467;-87
2021/05/19 06:14:26;;;;;;;18.38;12.90;;;10.00;99.90;;;;;;5098009;28;20055;-86
2021/05/19 06:16:53;;;;;;;16.60;11.23;;;10.20;99.90;;;;;;5114940;28;20441;-86
2021/05/19 06:19:20;;;;;;;15.18;10.10;;;10.30;99.90;;;;;;5097737;28;20056;-87
2021/05/19 06:21:48;;;;;;;15.52;11.13;;;10.40;99.90;;;;;;5081723;28;20050;-87
2021/05/19 06:24:15;;;;;;;16.70;10.65;;;10.40;99.90;;;;;;5115019;28;20071;-87
2021/05/19 06:26:41;;;;;;;14.68;9.93;;;10.40;99.90;;;;;;5117327;27;20070;-86
2021/05/19 06:29:08;;;;;;;16.98;10.70;;;10.40;99.90;;;;;;5118238;27;20043;-86
2021/05/19 06:31:38;;;;;;;16.92;11.85;;;10.40;99.90;;;;;;5118285;27;20036;-87
2021/05/19 06:34:06;;;;;;;15.88;10.85;;;10.40;99.90;;;;;;5118651;27;20054;-87
2021/05/19 06:36:32;;;;;;;14.43;10.48;;;10.50;99.90;;;;;;5117979;27;20117;-86
2021/05/19 06:38:59;;;;;;;14.13;9.57;;;10.50;99.90;;;;;;5170463;27;20118;-88
2021/05/19 06:41:26;;;;;;;16.70;10.20;;;10.40;99.90;;;;;;5134888;27;20043;-88
2021/05/19 06:43:54;;;;;;;17.45;10.18;;;10.50;99.90;;;;;;5118753;27;20043;-87
2021/05/19 06:46:21;;;;;;;16.17;9.82;;;10.60;99.90;;;;;;5151458;27;20050;-87
2021/05/19 06:48:48;;;;;;;16.52;10.35;;;10.60;99.90;;;;;;5118407;27;20043;-88
2021/05/19 06:51:15;;;;;;;17.15;11.00;;;10.60;99.90;;;;;;5152199;27;20035;-89
2021/05/19 06:53:42;;;;;;;14.23;10.88;;;10.70;99.90;;;;;;5135257;27;20035;-89
2021/05/19 06:56:08;;;;;;;15.57;9.77;;;10.70;99.90;;;;;;5118481;27;20116;-90
2021/05/19 06:58:38;;;;;;;16.10;9.98;;;10.80;99.90;;;;;;5135963;28;20051;-89
2021/05/19 07:01:05;;;;;;;15.10;10.13;;;10.70;99.90;;;;;;5136250;28;20053;-91
2021/05/19 07:03:33;;;;;;;15.73;10.98;;;10.80;99.90;;;;;;5135525;27;20586;-90
2021/05/19 07:06:03;;;;;;;16.98;10.38;;;10.80;99.90;;;;;;5136673;27;20122;-91
2021/05/19 07:08:36;;;;;;;15.70;11.13;;;10.80;99.90;;;;;;5118356;28;20047;-88
2021/05/19 07:11:04;;;;;;;16.20;10.65;;;10.80;99.90;;;;;;5119244;28;20062;-90
2021/05/19 07:13:31;;;;;;;13.07;10.25;;;10.80;99.90;;;;;;5152143;28;20031;-89
2021/05/19 07:15:58;;;;;;;14.43;11.07;;;10.80;99.90;;;;;;5120529;27;20076;-89
2021/05/19 07:18:25;;;;;;;19.67;11.80;;;10.70;99.90;;;;;;5122877;27;20047;-89
2021/05/19 07:20:52;;;;;;;20.33;12.70;;;10.80;99.90;;;;;;5122276;27;20506;-90
2021/05/19 07:23:19;;;;;;;18.42;13.45;;;10.70;99.90;;;;;;5118861;28;20035;-87
2021/05/19 07:25:46;;;;;;;18.58;12.43;;;10.70;99.90;;;;;;5139052;27;20043;-88
2021/05/19 07:28:13;;;;;;;18.13;12.45;;;10.60;99.90;;;;;;5118007;27;20032;-85
2021/05/19 07:30:43;;;;;;;20.08;12.73;;;10.70;99.90;;;;;;5124446;28;20475;-85
2021/05/19 07:33:11;;;;;;;20.48;12.82;;;10.60;99.90;;;;;;5146693;27;20114;-85
2021/05/19 07:35:39;;;;;;;20.58;14.02;;;10.70;99.90;;;;;;5137846;27;20486;-84
2021/05/19 07:38:07;;;;;;;21.77;13.05;;;10.70;99.90;;;;;;5134485;28;20027;-85
2021/05/19 07:40:34;;;;;;;21.55;13.27;;;10.70;99.90;;;;;;5116909;28;20118;-84
2021/05/19 07:43:01;;;;;;;24.63;14.57;;;10.80;99.90;;;;;;5117438;28;20051;-85
2021/05/19 07:45:29;;;;;;;20.00;14.73;;;10.80;99.90;;;;;;5143611;27;20083;-88
2021/05/19 07:47:56;;;;;;;20.00;13.95;;;10.90;99.90;;;;;;5133117;28;20031;-85
2021/05/19 07:50:23;;;;;;;20.23;14.85;;;11.00;99.90;;;;;;5138140;27;20108;-86
2021/05/19 07:52:50;;;;;;;19.38;13.50;;;11.00;99.90;;;;;;5135595;27;20071;-86
2021/05/19 07:55:43;;;;;;;20.33;14.15;;;11.10;99.90;;;;;;5133747;28;20048;-85
2021/05/19 07:58:10;;;;;;;18.17;12.85;;;11.20;99.90;;;;;;5136057;28;20051;-85
2021/05/19 08:03:04;;;;;;;18.17;13.65;;;11.30;99.90;;;;;;5100378;28;20088;-86
2021/05/19 08:05:31;;;;;;;19.88;13.82;;;11.30;99.90;;;;;;5115161;27;20399;-85
2021/05/19 08:07:59;;;;;;;22.05;14.75;;;11.30;99.90;;;;;;5154540;27;20044;-86
2021/05/19 08:10:25;;;;;;;20.33;14.98;;;11.30;99.90;;;;;;5126870;28;20118;-86
2021/05/19 08:12:53;;;;;;;23.52;15.57;;;11.30;99.90;;;;;;5100762;28;20141;-85
2021/05/19 08:15:20;;;;;;;23.88;15.77;;;11.40;99.90;;;;;;5128743;28;20517;-85
2021/05/19 08:17:47;;;;;;;22.42;17.08;;;11.40;99.90;;;;;;5152910;27;20027;-85
2021/05/19 08:20:19;;;;;;;19.10;14.98;;;11.50;99.90;;;;;;5153255;27;20562;-85
2021/05/19 08:22:47;;;;;;;24.05;16.60;;;11.50;99.90;;;;;;5121440;27;20030;-84
2021/05/19 08:25:14;;;;;;;24.08;16.73;;;11.60;99.90;;;;;;5123413;27;20063;-86
2021/05/19 08:27:41;;;;;;;23.42;15.85;;;11.60;99.90;;;;;;5136060;27;20051;-85
2021/05/19 08:30:14;;;;;;;25.85;17.20;;;11.60;99.90;;;;;;5117362;28;20059;-85
2021/05/19 08:32:41;;;;;;;25.63;16.73;;;11.70;99.90;;;;;;5135494;27;20051;-84
2021/05/19 08:35:08;;;;;;;28.38;18.20;;;11.80;99.90;;;;;;5136826;27;20043;-87
2021/05/19 08:37:36;;;;;;;31.13;17.63;;;12.00;99.90;;;;;;5120468;27;20059;-85
2021/05/19 08:40:05;;;;;;;22.30;15.82;;;12.10;99.90;;;;;;5119671;27;20487;-86
2021/05/19 08:42:36;;;;;;;24.58;16.63;;;12.00;99.90;;;;;;5116355;28;20062;-86
2021/05/19 08:45:06;;;;;;;25.00;17.83;;;12.00;99.90;;;;;;5136889;27;20368;-85
2021/05/19 08:47:33;;;;;;;24.60;16.80;;;12.00;99.90;;;;;;5138963;27;20042;-86
2021/05/19 08:50:02;;;;;;;27.92;17.90;;;12.10;99.90;;;;;;5133239;28;20044;-85
2021/05/19 08:52:29;;;;;;;24.95;18.15;;;12.00;99.90;;;;;;5170196;27;20475;-84
2021/05/19 08:54:56;;;;;;;23.73;17.30;;;12.00;99.90;;;;;;5132620;28;20077;-84
2021/05/19 08:57:23;;;;;;;27.23;16.77;;;12.00;99.90;;;;;;5116317;28;20391;-85
2021/05/19 08:59:50;;;;;;;25.75;17.77;;;12.10;99.90;;;;;;5115984;28;20471;-85
2021/05/19 09:02:17;;;;;;;25.70;17.05;;;12.20;99.90;;;;;;5132197;28;20039;-85
2021/05/19 09:04:45;;;;;;;21.27;14.43;;;12.40;99.90;;;;;;5115907;28;20122;-85
2021/05/19 09:07:19;;;;;;;22.38;14.70;;;12.50;99.90;;;;;;5115939;28;20046;-86
2021/05/19 09:09:47;;;;;;;22.77;16.15;;;12.50;99.90;;;;;;5132870;28;20093;-86
2021/05/19 09:12:16;;;;;;;20.52;16.13;;;12.60;99.90;;;;;;5111144;28;20039;-87
2021/05/19 09:14:54;;;;;;;20.17;13.88;;;12.90;99.90;;;;;;5141600;28;20039;-86
2021/05/19 09:17:28;;;;;;;19.95;13.68;;;13.20;99.90;;;;;;5149123;27;20035;-85
2021/05/19 09:19:59;;;;;;;21.13;13.50;;;13.30;99.90;;;;;;5153587;27;20035;-87
2021/05/19 09:22:30;;;;;;;23.08;14.20;;;13.40;99.90;;;;;;5153770;27;20042;-87
2021/05/19 09:24:57;;;;;;;17.83;13.77;;;13.50;99.90;;;;;;5136371;27;20035;-85
2021/05/19 09:27:36;;;;;;;18.48;13.00;;;13.50;99.90;;;;;;5171405;27;20031;-86
2021/05/19 09:30:04;;;;;;;21.67;12.75;;;13.60;99.90;;;;;;5116102;28;20067;-86
2021/05/19 09:32:38;;;;;;;19.30;12.90;;;13.60;99.90;;;;;;5131251;27;20031;-86
2021/05/19 09:35:07;;;;;;;17.98;13.57;;;13.50;99.90;;;;;;5115582;28;20437;-86
2021/05/19 09:37:35;;;;;;;16.95;11.00;;;13.60;99.90;;;;;;5114387;28;20134;-85
2021/05/19 09:40:04;;;;;;;13.10;10.63;;;13.60;99.90;;;;;;5115571;27;20043;-85
2021/05/19 09:42:37;;;;;;;14.07;10.05;;;13.70;99.90;;;;;;5152602;27;20154;-85
2021/05/19 09:45:24;;;;;;;14.38;9.45;;;14.00;99.90;;;;;;5152297;27;20043;-86
2021/05/19 09:47:57;;;;;;;13.55;8.65;;;14.20;99.90;;;;;;5135903;27;20420;-84
2021/05/19 09:50:45;;;;;;;12.38;8.32;;;14.40;99.90;;;;;;5135556;27;20039;-85
2021/05/19 09:53:14;;;;;;;11.70;8.38;;;14.50;99.90;;;;;;5152191;27;20402;-84
2021/05/19 09:56:02;;;;;;;11.88;9.10;;;14.90;99.90;;;;;;5170117;27;20123;-84
2021/05/19 09:58:30;;;;;;;13.98;8.60;;;14.90;99.90;;;;;;5152872;27;20444;-89
2021/05/19 10:00:58;;;;;;;12.77;7.40;;;14.80;99.90;;;;;;5135305;27;20475;-88
2021/05/19 10:03:25;;;;;;;10.50;7.15;;;14.60;99.90;;;;;;5153123;27;20035;-89
2021/05/19 10:08:51;;;;;;;10.63;6.95;;;14.50;99.90;;;;;;5106872;27;20043;-86
2021/05/19 10:11:18;;;;;;;10.82;6.65;;;14.40;99.90;;;;;;5114853;28;20040;-87
2021/05/19 10:13:46;;;;;;;9.05;6.53;;;14.30;99.90;;;;;;5100128;28;20055;-88
2021/05/19 10:16:18;;;;;;;11.15;7.35;;;14.10;99.90;;;;;;5114997;28;20068;-86
2021/05/19 10:18:52;;;;;;;11.18;6.80;;;14.00;99.90;;;;;;5133734;28;20052;-86
2021/05/19 10:21:21;;;;;;;7.97;6.35;;;14.00;99.90;;;;;;5148297;27;20540;-87
2021/05/19 10:26:32;;;;;;;9.60;6.63;;;13.80;99.90;;;;;;5132376;28;20047;-85
2021/05/19 10:28:59;;;;;;;9.95;6.82;;;13.80;99.90;;;;;;5134041;27;20110;-85
2021/05/19 10:31:29;;;;;;;9.98;7.70;;;13.80;99.90;;;;;;5134545;27;20027;-85
2021/05/19 10:33:58;;;;;;;11.05;7.10;;;13.80;99.90;;;;;;5169133;27;20134;-85
2021/05/19 10:36:24;;;;;;;8.32;6.45;;;14.00;99.90;;;;;;5135137;27;20031;-86
2021/05/19 10:39:10;;;;;;;11.38;6.82;;;14.00;99.90;;;;;;5150702;27;20038;-86
2021/05/19 10:41:51;;;;;;;9.38;6.50;;;14.00;99.90;;;;;;5134049;27;20046;-86
2021/05/19 10:44:22;;;;;;;9.43;7.03;;;14.00;99.90;;;;;;5151619;27;20042;-89
2021/05/19 10:47:14;;;;;;;8.07;5.45;;;14.00;99.90;;;;;;5150972;27;20118;-86
2021/05/19 10:59:10;;;;;;;4.53;2.70;;;13.10;99.90;;;;;;5161437;27;20030;-86
2021/05/19 11:01:40;;;;;;;5.32;2.45;;;13.00;99.90;;;;;;5151623;27;20107;-87
2021/05/19 11:04:16;;;;;;;5.43;2.58;;;12.90;99.90;;;;;;5150945;28;20034;-86
2021/05/19 11:07:01;;;;;;;4.15;2.60;;;12.90;99.90;;;;;;5150478;27;20035;-87
2021/05/19 11:09:40;;;;;;;4.70;2.50;;;12.90;99.90;;;;;;5169607;27;20038;-86
2021/05/19 11:12:24;;;;;;;4.35;2.50;;;12.70;99.90;;;;;;5134733;28;20066;-85
2021/05/19 11:15:03;;;;;;;4.95;2.85;;;12.80;99.90;;;;;;5150710;28;20039;-86
2021/05/19 11:20:13;;;;;;;7.00;3.30;;;12.60;99.90;;;;;;5169683;28;20110;-86
2021/05/19 11:22:40;;;;;;;5.10;3.17;;;12.50;99.90;;;;;;5151128;28;20130;-85
2021/05/19 11:25:08;;;;;;;6.40;4.18;;;12.40;99.90;;;;;;5116860;28;20034;-85
2021/05/19 11:27:36;;;;;;;13.30;4.97;;;12.20;99.90;;;;;;5130572;28;20471;-85
2021/05/19 11:30:07;;;;;;;6.55;4.40;;;12.20;99.90;;;;;;5130148;28;20371;-83
2021/05/19 11:32:35;;;;;;;10.50;5.00;;;12.00;99.90;;;;;;5130441;28;20442;-83
2021/05/19 11:35:18;;;;;;;6.13;3.88;;;11.90;99.90;;;;;;5096725;28;20047;-83
2021/05/19 11:37:56;;;;;;;6.60;4.10;;;11.90;99.90;;;;;;5129759;28;20039;-82
2021/05/19 11:40:34;;;;;;;5.65;3.17;;;11.90;99.90;;;;;;5135827;28;20096;-84
2021/05/19 11:43:01;;;;;;;5.65;3.22;;;11.80;99.90;;;;;;5150467;28;20031;-83
2021/05/19 11:45:28;;;;;;;5.15;2.80;;;11.80;99.90;;;;;;5117104;28;20047;-83
2021/05/19 11:47:55;;;;;;;4.97;1.98;;;11.80;99.90;;;;;;5133082;28;20042;-83
2021/05/19 11:50:28;;;;;;;7.07;2.50;;;11.80;99.90;;;;;;5100430;28;20043;-83
2021/05/19 11:52:59;;;;;;;3.97;2.42;;;11.80;99.90;;;;;;5150739;28;20078;-83
2021/05/19 11:55:37;;;;;;;5.47;2.67;;;11.80;99.90;;;;;;5150705;28;20435;-84
2021/05/19 11:58:04;;;;;;;4.65;2.20;;;11.80;99.90;;;;;;5150715;28;20046;-83
2021/05/19 12:00:32;;;;;;;5.65;2.53;;;11.80;99.90;;;;;;5150863;27;20027;-84
2021/05/19 12:02:59;;;;;;;4.88;2.20;;;11.80;99.90;;;;;;5133746;28;20425;-84
2021/05/19 12:05:26;;;;;;;6.28;2.67;;;11.80;99.90;;;;;;5116596;27;20027;-84
2021/05/19 12:07:52;;;;;;;6.20;3.30;;;11.80;99.90;;;;;;5120870;27;20046;-84
2021/05/19 12:10:20;;;;;;;5.03;3.15;;;11.80;99.90;;;;;;5137700;27;20039;-84
2021/05/19 12:12:53;;;;;;;4.70;3.42;;;11.70;99.90;;;;;;5120971;27;20066;-83
2021/05/19 12:15:20;;;;;;;8.10;4.00;;;11.80;99.90;;;;;;5154298;27;20096;-84
2021/05/19 12:17:47;;;;;;;6.03;4.05;;;11.80;99.90;;;;;;5154307;27;20035;-83
2021/05/19 12:20:25;;;;;;;6.50;4.60;;;11.90;99.90;;;;;;5136701;27;20539;-84
2021/05/19 12:22:59;;;;;;;5.30;3.90;;;11.90;99.90;;;;;;5136912;27;20104;-83
2021/05/19 12:25:27;;;;;;;4.82;3.65;;;11.90;99.90;;;;;;5133797;28;20036;-83
2021/05/19 12:28:01;;;;;;;5.75;3.20;;;11.90;99.90;;;;;;5116443;28;20394;-84
2021/05/19 12:30:28;;;;;;;5.45;2.97;;;12.00;99.90;;;;;;5109664;27;20043;-84
2021/05/19 12:33:07;;;;;;;5.85;3.55;;;12.00;99.90;;;;;;5152838;27;20027;-84
2021/05/19 12:35:34;;;;;;;4.40;2.70;;;12.10;99.90;;;;;;5171568;27;20055;-85
2021/05/19 12:38:07;;;;;;;6.05;4.07;;;12.00;99.90;;;;;;5132223;28;20377;-85
2021/05/19 12:40:36;;;;;;;5.95;3.00;;;12.10;99.90;;;;;;5116825;28;20037;-84
2021/05/19 12:43:06;;;;;;;5.03;3.13;;;12.10;99.90;;;;;;5132460;28;20036;-83
2021/05/19 12:45:44;;;;;;;3.97;2.85;;;12.10;99.90;;;;;;5132686;28;20040;-85
2021/05/19 12:48:17;;;;;;;4.00;2.85;;;12.20;99.90;;;;;;5158949;27;20122;-84
2021/05/19 12:50:59;;;;;;;5.65;3.05;;;12.20;99.90;;;;;;5153237;27;20454;-84
2021/05/19 12:53:42;;;;;;;4.55;3.35;;;12.30;99.90;;;;;;5152637;27;20055;-84
2021/05/19 12:56:22;;;;;;;3.83;2.08;;;12.40;99.90;;;;;;5153004;27;20043;-85
2021/05/19 12:59:05;;;;;;;8.32;3.83;;;12.50;99.90;;;;;;5148499;27;20035;-86
2021/05/19 13:01:43;;;;;;;3.95;2.35;;;12.60;99.90;;;;;;5153133;27;20067;-83
2021/05/19 13:04:10;;;;;;;3.83;2.08;;;12.70;99.90;;;;;;5135927;27;20039;-85
2021/05/19 13:06:37;;;;;;;7.97;2.40;;;12.70;99.90;;;;;;5136257;27;20043;-85
2021/05/19 13:09:07;;;;;;;3.97;2.40;;;12.60;99.90;;;;;;5136135;27;20114;-85
2021/05/19 13:11:46;;;;;;;4.22;2.50;;;12.60;99.90;;;;;;5153291;27;20035;-83